Time;durP1;ratioP1;P1;durP2;ratioP2;P2;SDS_P1;SDS_P2;PMS_P1;PMS_P2;Temp;Humidity;BMP_temperature;BMP_pressure;BME280_temperature;BME280_humidity;BME280_pressure;Samples;Min_cycle;Max_cycle;Signal;HPM_P1;HPM_P2
2022/05/16 00:00:29;;;;;;;17.73;5.67;;;13.30;99.90;;;;;;5054036;28;20048;-81
2022/05/16 00:02:56;;;;;;;10.13;6.23;;;13.30;99.90;;;;;;5076071;28;20056;-81
2022/05/16 00:05:23;;;;;;;9.73;5.77;;;13.30;99.90;;;;;;5059672;28;20685;-81
2022/05/16 00:07:48;;;;;;;12.57;5.77;;;13.30;99.90;;;;;;5070725;28;20041;-81
2022/05/16 00:10:15;;;;;;;14.40;6.27;;;13.30;99.90;;;;;;5058184;28;20211;-81
2022/05/16 00:12:41;;;;;;;9.57;5.60;;;13.30;99.90;;;;;;5064029;28;20048;-81
2022/05/16 00:15:09;;;;;;;10.53;6.43;;;13.30;99.90;;;;;;5056909;28;20081;-81
2022/05/16 00:17:35;;;;;;;9.63;5.63;;;13.20;99.90;;;;;;5068856;28;20056;-81
2022/05/16 00:20:01;;;;;;;13.50;6.47;;;13.30;99.90;;;;;;5051388;28;20462;-81
2022/05/16 00:22:27;;;;;;;9.80;5.67;;;13.20;99.90;;;;;;5068092;28;20052;-82
2022/05/16 00:24:54;;;;;;;10.20;5.67;;;13.20;99.90;;;;;;5057549;28;20136;-82
2022/05/16 00:27:20;;;;;;;11.07;6.17;;;13.20;99.90;;;;;;5074823;28;20083;-81
2022/05/16 00:29:46;;;;;;;11.43;5.37;;;13.20;99.90;;;;;;5058216;28;20060;-81
2022/05/16 00:32:13;;;;;;;13.17;5.60;;;13.20;99.90;;;;;;5071431;28;20072;-81
2022/05/16 00:34:39;;;;;;;11.93;5.63;;;13.20;99.90;;;;;;5033604;28;20519;-82
2022/05/16 00:37:05;;;;;;;8.33;5.67;;;13.10;99.90;;;;;;5057930;28;20060;-81
2022/05/16 00:39:32;;;;;;;11.90;5.93;;;13.10;99.90;;;;;;5042009;28;20060;-80
2022/05/16 00:41:57;;;;;;;8.60;5.43;;;13.10;99.90;;;;;;5071355;28;20059;-81
2022/05/16 00:44:24;;;;;;;9.03;5.70;;;13.10;99.90;;;;;;5058115;28;20048;-81
2022/05/16 00:46:50;;;;;;;10.47;5.67;;;13.10;99.90;;;;;;5073889;28;20037;-80
2022/05/16 00:49:38;;;;;;;11.77;5.60;;;13.10;99.90;;;;;;5057689;28;20049;-81
2022/05/16 00:52:14;;;;;;;10.43;5.60;;;13.00;99.90;;;;;;5056132;28;20098;-81
2022/05/16 00:55:08;;;;;;;11.27;5.33;;;13.00;99.90;;;;;;5072998;28;20052;-81
2022/05/16 00:57:41;;;;;;;9.87;5.60;;;13.00;99.90;;;;;;5073283;28;20086;-81
2022/05/16 01:00:16;;;;;;;6.70;4.80;;;13.00;99.90;;;;;;5062050;28;20634;-80
2022/05/16 01:05:37;;;;;;;7.93;5.10;;;13.00;99.90;;;;;;5065926;28;20072;-80
2022/05/16 01:08:07;;;;;;;9.80;5.53;;;12.90;99.90;;;;;;5072663;28;20091;-80
2022/05/16 01:10:34;;;;;;;10.60;4.97;;;12.90;99.90;;;;;;5057540;28;20071;-80
2022/05/16 01:13:04;;;;;;;9.33;5.20;;;12.90;99.90;;;;;;5071141;28;20083;-80
2022/05/16 01:15:42;;;;;;;7.70;4.67;;;12.90;99.90;;;;;;5071127;28;20049;-80
2022/05/16 01:18:10;;;;;;;13.40;4.67;;;12.90;99.90;;;;;;5062416;28;20048;-80
2022/05/16 01:21:15;;;;;;;7.67;4.60;;;12.90;99.90;;;;;;5056752;28;20048;-80
2022/05/16 01:23:54;;;;;;;9.97;5.17;;;12.90;99.90;;;;;;5061826;28;20045;-81
2022/05/16 01:26:24;;;;;;;9.80;4.73;;;12.80;99.90;;;;;;5072863;28;20527;-80
2022/05/16 01:28:51;;;;;;;6.87;4.70;;;12.80;99.90;;;;;;5063534;28;20044;-80
2022/05/16 01:31:17;;;;;;;7.60;4.43;;;12.80;99.90;;;;;;5048112;28;20139;-81
2022/05/16 01:33:43;;;;;;;7.83;4.83;;;12.80;99.90;;;;;;5052008;28;20056;-81
2022/05/16 01:36:09;;;;;;;8.30;4.80;;;12.80;99.90;;;;;;5064671;28;20052;-81
2022/05/16 01:38:35;;;;;;;10.37;4.80;;;12.70;99.90;;;;;;5063520;28;20573;-80
2022/05/16 01:41:08;;;;;;;8.43;4.37;;;12.70;99.90;;;;;;5071673;28;20512;-80
2022/05/16 01:43:37;;;;;;;7.63;4.70;;;12.70;99.90;;;;;;5073686;28;20045;-80
2022/05/16 01:46:03;;;;;;;8.83;5.03;;;12.70;99.90;;;;;;5065981;28;20118;-81
2022/05/16 01:48:30;;;;;;;8.67;4.50;;;12.60;99.90;;;;;;5057058;28;20048;-81
2022/05/16 01:51:02;;;;;;;12.97;4.70;;;12.60;99.90;;;;;;5056941;28;20163;-80
2022/05/16 01:53:28;;;;;;;9.18;4.40;;;12.60;99.90;;;;;;5068425;28;20071;-82
2022/05/16 01:55:55;;;;;;;9.70;4.50;;;12.60;99.90;;;;;;5071358;28;20124;-81
2022/05/16 01:58:21;;;;;;;6.73;4.20;;;12.50;99.90;;;;;;5056047;28;20113;-80
2022/05/16 02:00:47;;;;;;;8.30;4.13;;;12.50;99.90;;;;;;5073375;28;20056;-80
2022/05/16 02:03:13;;;;;;;7.57;4.43;;;12.50;99.90;;;;;;5072575;28;20075;-80
2022/05/16 02:05:42;;;;;;;7.17;4.60;;;12.50;99.90;;;;;;5072110;28;20060;-80
2022/05/16 02:08:08;;;;;;;9.53;3.83;;;12.50;99.90;;;;;;5049807;28;20055;-80
2022/05/16 02:10:34;;;;;;;7.40;3.97;;;12.40;99.90;;;;;;5066359;28;20056;-80
2022/05/16 02:13:01;;;;;;;10.10;4.13;;;12.40;99.90;;;;;;5072670;28;20630;-80
2022/05/16 02:15:31;;;;;;;7.57;4.63;;;12.40;99.90;;;;;;5043053;28;20500;-80
2022/05/16 02:17:57;;;;;;;10.20;4.40;;;12.40;99.90;;;;;;5072281;28;20069;-80
2022/05/16 02:20:24;;;;;;;8.60;3.93;;;12.40;99.90;;;;;;5070169;28;20487;-80
2022/05/16 02:25:36;;;;;;;8.20;4.33;;;12.50;99.90;;;;;;5072341;28;20036;-80
2022/05/16 02:28:04;;;;;;;6.90;4.27;;;12.50;99.90;;;;;;5069387;28;20258;-80
2022/05/16 02:30:29;;;;;;;7.77;4.20;;;12.50;99.90;;;;;;5073021;28;20334;-80
2022/05/16 02:32:55;;;;;;;9.33;4.10;;;12.50;99.90;;;;;;5070563;28;20072;-80
2022/05/16 02:35:22;;;;;;;8.40;3.70;;;12.50;99.90;;;;;;5040033;28;20056;-80
2022/05/16 02:37:49;;;;;;;7.83;4.20;;;12.50;99.90;;;;;;5064228;28;20052;-80
2022/05/16 02:40:14;;;;;;;6.67;3.93;;;12.40;99.90;;;;;;5067940;28;20046;-80
2022/05/16 02:42:40;;;;;;;7.37;3.70;;;12.40;99.90;;;;;;5055160;28;20126;-79
2022/05/16 02:45:06;;;;;;;6.30;4.20;;;12.50;99.90;;;;;;5070818;28;20135;-80
2022/05/16 02:47:32;;;;;;;6.13;3.50;;;12.50;99.90;;;;;;5071693;28;20040;-79
2022/05/16 02:49:58;;;;;;;5.40;3.40;;;12.50;99.90;;;;;;5070790;28;20111;-80
2022/05/16 02:52:24;;;;;;;7.37;4.03;;;12.50;99.90;;;;;;5055841;28;20040;-80
2022/05/16 02:54:51;;;;;;;6.93;3.90;;;12.50;99.90;;;;;;5071873;28;20067;-80
2022/05/16 02:57:17;;;;;;;8.27;3.67;;;12.50;99.90;;;;;;5072092;28;20076;-80
2022/05/16 02:59:43;;;;;;;6.27;3.80;;;12.40;99.90;;;;;;5054193;28;20190;-80
2022/05/16 03:02:11;;;;;;;8.53;3.73;;;12.40;99.90;;;;;;5053287;28;20103;-80
2022/05/16 03:04:37;;;;;;;7.53;3.80;;;12.40;99.90;;;;;;5072546;28;20048;-80
2022/05/16 03:07:04;;;;;;;12.80;4.70;;;12.40;99.90;;;;;;5072492;28;20048;-80
2022/05/16 03:09:32;;;;;;;8.17;3.60;;;12.40;99.90;;;;;;5073234;28;20075;-80
2022/05/16 03:11:58;;;;;;;5.57;3.70;;;12.40;99.90;;;;;;5062584;28;20132;-79
2022/05/16 03:14:24;;;;;;;7.27;4.03;;;12.40;99.90;;;;;;5069350;28;20056;-80
2022/05/16 03:16:51;;;;;;;5.90;3.60;;;12.30;99.90;;;;;;5071105;28;20104;-80
2022/05/16 03:19:17;;;;;;;6.33;3.67;;;12.30;99.90;;;;;;5053756;28;20758;-80
2022/05/16 03:21:43;;;;;;;6.67;3.43;;;12.20;99.90;;;;;;5064408;28;20135;-80
2022/05/16 03:24:09;;;;;;;7.03;3.40;;;12.20;99.90;;;;;;5071527;28;20051;-79
2022/05/16 03:26:38;;;;;;;6.73;3.37;;;12.10;99.90;;;;;;5051651;28;20075;-80
2022/05/16 03:29:06;;;;;;;6.80;3.60;;;12.10;99.90;;;;;;5051893;28;20047;-79
2022/05/16 03:31:33;;;;;;;6.07;3.40;;;12.10;99.90;;;;;;5063847;28;20063;-79
2022/05/16 03:33:58;;;;;;;8.27;4.00;;;12.10;99.90;;;;;;5071814;28;20041;-79
2022/05/16 03:36:24;;;;;;;7.57;3.73;;;12.10;99.90;;;;;;5070086;28;20060;-79
2022/05/16 03:41:35;;;;;;;8.53;3.80;;;12.10;99.90;;;;;;5042947;28;20044;-78
2022/05/16 03:44:00;;;;;;;5.80;3.20;;;12.10;99.90;;;;;;5071648;28;20055;-79
2022/05/16 03:46:26;;;;;;;5.60;3.33;;;12.00;99.90;;;;;;5052958;28;20231;-80
2022/05/16 03:48:52;;;;;;;6.27;3.20;;;12.00;99.90;;;;;;5017654;28;20603;-79
2022/05/16 03:51:19;;;;;;;6.20;3.37;;;12.00;99.90;;;;;;5066793;28;20076;-80
2022/05/16 03:53:48;;;;;;;14.93;3.83;;;12.00;99.90;;;;;;5055284;28;20048;-80
2022/05/16 03:56:20;;;;;;;7.07;3.30;;;12.00;99.90;;;;;;5072711;28;20040;-79
2022/05/16 03:58:46;;;;;;;6.32;3.13;;;12.00;99.90;;;;;;5073706;28;20116;-79
2022/05/16 04:01:12;;;;;;;9.43;3.20;;;12.00;99.90;;;;;;5076238;28;20052;-80
2022/05/16 04:03:38;;;;;;;6.53;3.60;;;12.00;99.90;;;;;;5062461;28;20049;-80
2022/05/16 04:06:05;;;;;;;6.23;3.47;;;11.90;99.90;;;;;;5065775;28;20044;-80
2022/05/16 04:08:31;;;;;;;8.00;3.53;;;12.00;99.90;;;;;;5073748;28;20052;-80
2022/05/16 04:10:58;;;;;;;8.23;3.27;;;12.00;99.90;;;;;;5075059;28;20056;-79
2022/05/16 04:13:24;;;;;;;8.33;3.23;;;12.00;99.90;;;;;;5071936;28;20052;-80
2022/05/16 04:15:50;;;;;;;7.50;2.93;;;12.00;99.90;;;;;;5072935;28;20741;-80
2022/05/16 04:18:16;;;;;;;7.30;3.20;;;12.10;99.90;;;;;;5058807;28;20337;-80
2022/05/16 04:20:42;;;;;;;9.27;3.17;;;12.10;99.90;;;;;;5073163;28;20504;-79
2022/05/16 04:23:09;;;;;;;6.90;3.20;;;12.10;99.90;;;;;;5074354;28;20040;-80
2022/05/16 04:25:37;;;;;;;10.60;3.83;;;12.20;99.90;;;;;;5075257;28;20105;-80
2022/05/16 04:28:05;;;;;;;8.93;3.50;;;12.30;99.90;;;;;;5074522;28;20048;-80
2022/05/16 04:30:31;;;;;;;7.57;3.53;;;12.30;99.90;;;;;;5075749;28;20052;-80
2022/05/16 04:32:57;;;;;;;4.67;3.67;;;12.40;99.90;;;;;;5074673;28;20041;-80
2022/05/16 04:35:22;;;;;;;5.83;3.10;;;12.40;99.90;;;;;;5058605;28;20055;-79
2022/05/16 04:37:48;;;;;;;6.60;3.53;;;12.40;99.90;;;;;;5056803;28;20040;-80
2022/05/16 04:40:14;;;;;;;6.73;3.57;;;12.50;99.90;;;;;;5058180;28;20041;-80
2022/05/16 04:42:40;;;;;;;5.73;3.77;;;12.50;99.90;;;;;;5045385;28;20075;-80
2022/05/16 04:45:08;;;;;;;5.30;3.00;;;12.50;99.90;;;;;;5061878;28;20088;-80
2022/05/16 04:47:33;;;;;;;4.90;3.23;;;12.50;99.90;;;;;;5074157;28;20060;-79
2022/05/16 04:49:59;;;;;;;7.23;3.57;;;12.50;99.90;;;;;;5040609;28;20048;-83
2022/05/16 04:52:25;;;;;;;5.10;3.57;;;12.50;99.90;;;;;;5023605;28;20048;-83
2022/05/16 04:54:51;;;;;;;4.83;3.40;;;12.50;99.90;;;;;;5074145;28;20048;-83
2022/05/16 04:57:18;;;;;;;5.33;3.07;;;12.50;99.90;;;;;;5069939;28;20503;-86
2022/05/16 04:59:47;;;;;;;7.07;3.47;;;12.50;99.90;;;;;;5057483;28;20056;-80
2022/05/16 05:02:14;;;;;;;6.33;3.57;;;12.50;99.90;;;;;;5073252;28;20072;-82
2022/05/16 05:04:40;;;;;;;8.43;3.53;;;12.50;99.90;;;;;;5057612;28;20468;-86
2022/05/16 05:07:06;;;;;;;7.47;3.90;;;12.50;99.90;;;;;;5040355;28;20051;-88
2022/05/16 05:14:31;;;;;;;6.40;3.67;;;12.50;99.90;;;;;;5038912;28;20056;-82
2022/05/16 05:15:02;;;;;;;7.53;4.00;;;12.50;99.90;;;;;;5060584;28;20049;-81
2022/05/16 05:17:27;;;;;;;8.90;3.87;;;12.60;99.90;;;;;;5055074;28;20048;-81
2022/05/16 05:19:53;;;;;;;7.23;3.83;;;12.60;99.90;;;;;;5057785;28;20050;-81
2022/05/16 05:22:19;;;;;;;8.27;3.90;;;12.60;99.90;;;;;;5073874;28;20044;-81
2022/05/16 05:24:44;;;;;;;9.00;3.90;;;12.70;99.90;;;;;;5072767;28;20071;-81
2022/05/16 05:27:11;;;;;;;9.03;4.00;;;12.80;99.90;;;;;;5044183;28;20539;-81
2022/05/16 05:29:36;;;;;;;7.93;3.90;;;12.90;99.90;;;;;;5036953;28;20076;-81
2022/05/16 05:32:03;;;;;;;8.73;4.17;;;13.00;99.90;;;;;;5020209;28;20041;-80
2022/05/16 05:34:29;;;;;;;8.37;3.40;;;13.10;99.90;;;;;;5073848;28;20049;-81
2022/05/16 05:36:55;;;;;;;5.63;3.30;;;13.20;99.90;;;;;;5055675;28;20063;-80
2022/05/16 05:39:21;;;;;;;8.87;4.40;;;13.30;99.90;;;;;;5066940;28;20063;-81
2022/05/16 05:41:47;;;;;;;7.47;4.60;;;13.40;99.90;;;;;;5065930;28;20057;-81
2022/05/16 05:44:13;;;;;;;6.17;4.30;;;13.50;99.90;;;;;;5067347;28;20045;-81
2022/05/16 05:46:40;;;;;;;8.47;4.37;;;13.50;99.90;;;;;;5031589;28;20107;-82
2022/05/16 05:49:06;;;;;;;6.73;4.27;;;13.50;99.90;;;;;;5052903;28;20052;-81
2022/05/16 05:51:32;;;;;;;8.37;4.00;;;13.60;99.90;;;;;;5055967;28;20480;-80
2022/05/16 05:53:58;;;;;;;6.40;3.90;;;13.70;99.90;;;;;;5051361;28;20129;-81
2022/05/16 05:56:24;;;;;;;10.43;4.03;;;13.70;99.90;;;;;;5037494;28;20340;-81
2022/05/16 05:58:50;;;;;;;9.00;4.30;;;13.70;99.90;;;;;;5062292;28;20130;-81
2022/05/16 06:01:16;;;;;;;7.60;4.60;;;13.80;99.90;;;;;;5035336;28;20045;-81
2022/05/16 06:03:41;;;;;;;7.83;3.77;;;13.90;99.90;;;;;;5062369;28;20112;-81
2022/05/16 06:06:07;;;;;;;6.90;4.00;;;13.90;99.90;;;;;;5030661;28;20935;-82
2022/05/16 06:08:33;;;;;;;6.87;4.50;;;14.00;99.90;;;;;;5028812;28;20444;-83
2022/05/16 06:11:00;;;;;;;9.40;4.00;;;14.10;99.90;;;;;;5036591;28;20052;-81
2022/05/16 06:13:27;;;;;;;6.83;3.77;;;14.20;99.90;;;;;;5010421;28;20469;-82
2022/05/16 06:15:52;;;;;;;8.27;4.47;;;14.20;99.90;;;;;;5032525;28;20328;-82
2022/05/16 06:18:18;;;;;;;10.77;4.20;;;14.30;99.90;;;;;;5048821;28;20044;-82
2022/05/16 06:20:44;;;;;;;8.67;4.20;;;14.30;99.90;;;;;;5030160;28;20048;-85
2022/05/16 06:23:10;;;;;;;8.33;4.57;;;14.30;99.90;;;;;;5011328;28;20749;-88
2022/05/16 06:25:39;;;;;;;5.00;3.90;;;14.30;99.90;;;;;;5044018;28;20321;-80
2022/05/16 06:28:11;;;;;;;8.63;4.60;;;14.30;99.90;;;;;;5058945;28;20048;-80
2022/05/16 06:30:41;;;;;;;7.97;3.90;;;14.40;99.90;;;;;;5045446;28;20553;-80
2022/05/16 06:33:07;;;;;;;9.97;4.67;;;14.40;99.90;;;;;;5040832;28;20489;-81
2022/05/16 06:35:33;;;;;;;8.60;4.20;;;14.50;99.90;;;;;;5046458;28;20041;-81
2022/05/16 06:38:16;;;;;;;9.67;4.33;;;14.50;99.90;;;;;;5045720;28;20143;-81
2022/05/16 06:40:44;;;;;;;6.33;3.80;;;14.60;99.90;;;;;;5047636;28;20048;-81
2022/05/16 06:43:10;;;;;;;7.83;4.23;;;14.70;99.90;;;;;;5046374;28;20046;-81
2022/05/16 06:45:36;;;;;;;7.25;4.28;;;14.90;99.90;;;;;;5063100;28;21878;-80
2022/05/16 06:48:03;;;;;;;10.27;4.23;;;15.30;99.90;;;;;;5047005;28;20044;-81
2022/05/16 06:50:30;;;;;;;7.97;4.10;;;15.60;99.90;;;;;;5044560;28;20036;-81
2022/05/16 06:52:57;;;;;;;5.60;4.03;;;15.90;99.90;;;;;;5031420;28;20045;-81
2022/05/16 06:55:23;;;;;;;8.23;3.97;;;16.20;99.90;;;;;;5045229;28;20101;-78
2022/05/16 06:57:49;;;;;;;7.40;4.22;;;16.40;99.90;;;;;;5028955;28;20143;-80
2022/05/16 07:00:16;;;;;;;10.02;4.03;;;16.50;99.90;;;;;;5061285;28;20826;-81
2022/05/16 07:02:42;;;;;;;8.70;4.13;;;16.70;99.90;;;;;;5060189;28;20080;-79
2022/05/16 07:05:09;;;;;;;6.20;4.13;;;16.90;99.90;;;;;;5042068;28;20079;-81
2022/05/16 07:07:35;;;;;;;10.63;4.75;;;17.10;99.90;;;;;;5042743;28;20049;-80
2022/05/16 07:10:05;;;;;;;8.43;3.90;;;17.30;99.90;;;;;;5046148;28;20117;-81
2022/05/16 07:12:30;;;;;;;10.02;4.05;;;17.50;99.90;;;;;;5044222;28;20085;-80
2022/05/16 07:14:56;;;;;;;7.57;3.63;;;17.70;99.90;;;;;;5045215;28;20036;-80
2022/05/16 07:17:22;;;;;;;7.38;3.70;;;17.80;99.90;;;;;;5028741;28;20048;-80
2022/05/16 07:19:49;;;;;;;8.77;3.78;;;18.00;99.90;;;;;;5014835;28;20056;-80
2022/05/16 07:22:19;;;;;;;7.22;3.90;;;18.20;99.90;;;;;;5043983;28;20029;-80
2022/05/16 07:24:45;;;;;;;9.45;4.18;;;18.30;99.90;;;;;;5043104;28;20043;-81
2022/05/16 07:29:57;;;;;;;8.18;4.03;;;18.50;99.90;;;;;;5059710;28;20448;-81
2022/05/16 07:32:23;;;;;;;5.03;3.30;;;18.70;99.90;;;;;;5030686;28;20447;-81
2022/05/16 07:34:49;;;;;;;7.05;3.58;;;18.90;99.90;;;;;;5046635;28;20040;-80
2022/05/16 07:37:15;;;;;;;8.65;3.80;;;19.10;99.90;;;;;;5032226;28;20040;-82
2022/05/16 07:39:41;;;;;;;10.55;3.55;;;19.10;99.90;;;;;;5035290;28;20481;-81
2022/05/16 07:42:09;;;;;;;8.15;3.38;;;19.20;99.90;;;;;;5063373;28;20059;-81
2022/05/16 07:44:40;;;;;;;7.18;3.42;;;19.40;99.90;;;;;;5045988;28;20043;-81
2022/05/16 07:47:07;;;;;;;9.02;3.38;;;19.50;99.90;;;;;;5047602;28;20036;-82
2022/05/16 07:49:32;;;;;;;8.82;3.80;;;19.60;99.90;;;;;;5046338;28;20344;-81
2022/05/16 07:51:58;;;;;;;8.32;3.83;;;19.80;99.90;;;;;;5047428;28;20615;-81
2022/05/16 07:54:24;;;;;;;9.70;3.58;;;19.80;99.90;;;;;;5017754;28;20045;-81
2022/05/16 07:56:50;;;;;;;8.68;3.65;;;19.90;99.90;;;;;;5048908;28;20488;-81
2022/05/16 07:59:16;;;;;;;6.32;3.58;;;20.00;99.90;;;;;;5016898;28;20127;-81
2022/05/16 08:01:42;;;;;;;7.32;3.70;;;20.10;99.90;;;;;;5065218;28;20075;-79
2022/05/16 08:04:08;;;;;;;10.20;4.05;;;20.20;99.90;;;;;;5046715;28;20048;-81
2022/05/16 08:06:35;;;;;;;8.05;3.40;;;20.20;99.90;;;;;;5017149;28;20041;-81
2022/05/16 08:11:45;;;;;;;9.20;3.40;;;20.40;99.90;;;;;;5080483;28;21215;-81
2022/05/16 08:14:11;;;;;;;6.90;3.53;;;20.50;99.90;;;;;;5037927;28;20258;-80
2022/05/16 08:16:37;;;;;;;6.93;3.30;;;20.70;99.90;;;;;;5035364;28;20086;-80
2022/05/16 08:19:03;;;;;;;8.82;3.33;;;20.80;99.90;;;;;;5035849;28;20137;-80
2022/05/16 08:21:29;;;;;;;7.82;3.35;;;20.90;99.90;;;;;;5049404;28;20040;-80
2022/05/16 08:23:55;;;;;;;7.40;3.40;;;21.00;99.90;;;;;;5034441;28;20549;-78
2022/05/16 08:26:21;;;;;;;9.32;3.50;;;21.20;98.40;;;;;;5035574;28;20045;-81
2022/05/16 08:28:47;;;;;;;8.05;3.25;;;21.30;97.10;;;;;;5059184;28;20040;-81
2022/05/16 08:31:13;;;;;;;7.80;4.25;;;21.50;98.90;;;;;;5047879;28;20037;-82
2022/05/16 08:33:40;;;;;;;7.68;3.15;;;21.60;96.00;;;;;;5047067;28;20048;-81
2022/05/16 08:41:55;;;;;;;5.45;3.28;;;21.70;95.60;;;;;;5064240;28;20134;-81
2022/05/16 08:44:33;;;;;;;8.88;3.45;;;21.70;91.90;;;;;;5044326;28;20040;-81
2022/05/16 08:47:16;;;;;;;6.15;3.45;;;21.70;91.70;;;;;;5046669;28;20045;-81
2022/05/16 08:49:56;;;;;;;8.25;3.50;;;21.70;92.10;;;;;;5041843;28;20046;-81
2022/05/16 08:52:51;;;;;;;7.63;3.58;;;21.80;92.20;;;;;;5061629;28;20041;-81
2022/05/16 08:55:19;;;;;;;10.50;3.78;;;21.80;93.20;;;;;;5048604;28;20036;-83
2022/05/16 08:57:50;;;;;;;5.82;3.38;;;21.90;93.40;;;;;;5046524;28;20048;-81
2022/05/16 09:00:25;;;;;;;9.25;3.58;;;22.00;92.00;;;;;;5063825;28;20044;-81
2022/05/16 09:02:53;;;;;;;11.25;3.70;;;22.10;89.00;;;;;;5055677;28;20044;-80
2022/05/16 09:05:34;;;;;;;12.32;3.83;;;22.20;94.10;;;;;;5050742;28;20045;-80
2022/05/16 09:08:00;;;;;;;7.43;3.60;;;22.50;89.40;;;;;;5047616;28;20041;-80
2022/05/16 09:11:06;;;;;;;8.95;3.08;;;22.80;87.10;;;;;;5029440;28;20560;-80
2022/05/16 09:13:44;;;;;;;10.93;3.35;;;23.10;79.90;;;;;;5040672;28;20053;-80
2022/05/16 09:16:19;;;;;;;7.78;3.30;;;23.40;77.50;;;;;;5043199;28;20060;-81
2022/05/16 09:19:09;;;;;;;6.88;2.88;;;23.60;72.60;;;;;;5045328;28;20122;-80
2022/05/16 09:21:57;;;;;;;9.02;3.80;;;23.70;69.00;;;;;;5044719;28;20086;-81
2022/05/16 09:24:28;;;;;;;8.00;2.95;;;23.90;77.90;;;;;;5058506;28;20048;-80
2022/05/16 09:27:04;;;;;;;8.50;3.67;;;24.10;71.50;;;;;;5065178;28;20055;-80
2022/05/16 09:29:35;;;;;;;7.47;3.03;;;24.10;72.10;;;;;;5085141;28;20075;-80
2022/05/16 09:32:34;;;;;;;10.45;3.50;;;24.20;71.20;;;;;;5064588;28;20040;-81
2022/05/16 09:35:00;;;;;;;9.70;3.47;;;24.20;68.80;;;;;;5064104;28;21219;-79
2022/05/16 09:37:26;;;;;;;9.25;3.30;;;24.10;69.70;;;;;;5043062;28;20052;-80
2022/05/16 09:39:54;;;;;;;7.05;3.03;;;24.20;68.40;;;;;;5048527;28;20047;-81
2022/05/16 09:42:24;;;;;;;8.98;3.40;;;24.30;68.30;;;;;;5062926;28;20041;-80
2022/05/16 09:45:04;;;;;;;8.70;3.30;;;24.30;66.20;;;;;;5050133;28;20036;-80
2022/05/16 09:47:29;;;;;;;8.80;3.28;;;24.40;69.50;;;;;;5063148;28;20048;-79
2022/05/16 09:50:30;;;;;;;6.95;3.15;;;24.50;66.60;;;;;;5043138;28;20033;-80
2022/05/16 09:53:02;;;;;;;7.38;2.95;;;24.70;63.40;;;;;;5061515;28;20088;-80
2022/05/16 09:55:48;;;;;;;5.47;2.70;;;24.80;64.30;;;;;;5041717;28;20049;-81
2022/05/16 09:58:18;;;;;;;4.32;2.97;;;25.10;57.60;;;;;;5045537;28;20484;-81
2022/05/16 10:00:59;;;;;;;5.60;2.93;;;25.30;62.40;;;;;;5066361;28;20520;-81
2022/05/16 10:03:34;;;;;;;7.90;2.88;;;25.70;59.50;;;;;;5042575;28;20346;-81
2022/05/16 10:06:08;;;;;;;4.88;2.90;;;25.80;59.90;;;;;;5060115;28;20049;-81
2022/05/16 10:08:37;;;;;;;9.38;3.00;;;26.00;58.90;;;;;;5047941;28;20593;-81
2022/05/16 10:11:07;;;;;;;4.95;3.17;;;26.10;56.60;;;;;;5044263;28;20049;-79
2022/05/16 10:13:34;;;;;;;7.75;3.25;;;26.20;57.90;;;;;;5052057;28;20119;-81
2022/05/16 10:16:05;;;;;;;6.00;2.75;;;26.30;57.30;;;;;;5026893;28;20037;-81
2022/05/16 10:18:38;;;;;;;8.50;3.20;;;26.20;56.60;;;;;;5055334;28;20131;-81
2022/05/16 10:21:10;;;;;;;4.03;2.75;;;26.10;57.00;;;;;;5042001;28;20261;-81
2022/05/16 10:23:41;;;;;;;5.97;2.97;;;25.90;56.60;;;;;;5050557;28;20123;-81
2022/05/16 10:26:12;;;;;;;7.38;3.30;;;25.90;56.80;;;;;;5050617;28;20052;-81
2022/05/16 10:28:41;;;;;;;8.50;3.05;;;25.90;57.00;;;;;;5059962;28;20033;-81
2022/05/16 10:34:11;;;;;;;7.22;3.08;;;25.80;57.70;;;;;;5064594;28;20420;-80
2022/05/16 10:36:38;;;;;;;7.82;3.60;;;25.90;59.30;;;;;;5047069;28;20036;-81
2022/05/16 10:39:07;;;;;;;5.10;3.08;;;25.90;57.40;;;;;;5036470;28;20064;-81
2022/05/16 10:41:45;;;;;;;6.28;3.05;;;26.00;57.40;;;;;;5045446;28;20098;-81
2022/05/16 10:44:26;;;;;;;8.32;3.40;;;26.00;56.80;;;;;;5041819;28;20497;-81
2022/05/16 10:47:16;;;;;;;7.97;3.00;;;26.00;57.30;;;;;;5047144;28;20044;-81
2022/05/16 10:50:08;;;;;;;5.85;3.10;;;26.00;55.80;;;;;;5039503;28;20114;-81
2022/05/16 10:53:02;;;;;;;8.27;3.17;;;25.90;56.90;;;;;;5042632;28;20500;-81
2022/05/16 10:55:37;;;;;;;6.43;3.00;;;25.80;58.90;;;;;;5062660;28;20522;-81
2022/05/16 10:58:30;;;;;;;7.05;3.15;;;25.80;59.50;;;;;;5063348;28;20056;-80
2022/05/16 11:01:21;;;;;;;8.52;3.58;;;25.80;59.10;;;;;;5043217;28;20062;-80
2022/05/16 11:04:01;;;;;;;11.77;3.85;;;25.70;57.90;;;;;;5062526;28;20135;-79
2022/05/16 11:06:36;;;;;;;7.43;3.38;;;25.70;58.90;;;;;;5057164;28;20044;-85
2022/05/16 11:09:06;;;;;;;7.68;3.30;;;25.60;58.10;;;;;;5047853;28;20056;-81
2022/05/16 11:11:50;;;;;;;8.02;3.40;;;25.60;60.00;;;;;;5065628;28;20063;-81
2022/05/16 11:14:40;;;;;;;7.57;3.40;;;25.50;59.70;;;;;;5061206;28;20530;-81
2022/05/16 11:17:25;;;;;;;6.70;3.42;;;25.50;58.50;;;;;;5065552;28;20056;-80
2022/05/16 11:20:18;;;;;;;7.40;3.40;;;25.40;59.20;;;;;;5066462;28;20048;-82
2022/05/16 11:22:52;;;;;;;6.82;3.22;;;25.30;58.10;;;;;;5054051;28;20597;-81
2022/05/16 11:25:46;;;;;;;5.40;3.25;;;25.30;59.40;;;;;;5064152;28;20568;-81
2022/05/16 11:28:19;;;;;;;8.20;3.40;;;25.20;57.60;;;;;;5061870;28;20040;-89
2022/05/16 11:30:59;;;;;;;9.68;3.60;;;25.10;59.90;;;;;;5068430;28;20048;-82
2022/05/16 11:33:40;;;;;;;11.73;3.25;;;25.00;60.00;;;;;;5061059;28;20041;-81
2022/05/16 11:36:18;;;;;;;6.80;3.60;;;24.90;61.60;;;;;;5063815;28;20081;-82
2022/05/16 11:39:34;;;;;;;7.88;3.60;;;24.90;64.70;;;;;;5067591;28;20112;-82
2022/05/16 11:42:09;;;;;;;9.23;3.97;;;24.70;62.00;;;;;;5058686;28;20044;-81
2022/05/16 11:44:44;;;;;;;11.65;4.28;;;24.70;63.60;;;;;;5065673;28;20542;-81
2022/05/16 11:47:19;;;;;;;8.90;3.72;;;24.60;63.30;;;;;;5069168;28;21643;-81
2022/05/16 11:50:15;;;;;;;9.65;3.58;;;24.50;63.70;;;;;;5070547;28;20059;-83
2022/05/16 11:52:49;;;;;;;12.23;4.18;;;24.50;66.60;;;;;;5066195;28;20048;-81
2022/05/16 12:00:55;;;;;;;9.70;4.82;;;24.10;76.00;;;;;;5072513;28;20056;-92
2022/05/16 12:03:22;;;;;;;9.93;4.85;;;23.90;90.40;;;;;;5066945;28;20041;-83
2022/05/16 12:06:26;;;;;;;8.82;4.90;;;23.80;97.20;;;;;;5068158;28;20044;-80
2022/05/16 12:09:19;;;;;;;12.75;5.40;;;23.70;99.90;;;;;;5067446;28;20149;-82
2022/05/16 12:11:59;;;;;;;10.10;4.82;;;23.50;99.40;;;;;;5067303;28;20036;-83
2022/05/16 12:14:33;;;;;;;13.20;4.85;;;23.40;99.90;;;;;;5051460;28;20649;-81
2022/05/16 12:17:07;;;;;;;11.43;4.93;;;23.40;99.90;;;;;;5051164;28;20041;-81
2022/05/16 12:19:37;;;;;;;8.10;4.85;;;23.30;99.90;;;;;;5064858;28;20290;-81
2022/05/16 12:22:04;;;;;;;9.63;4.60;;;23.30;99.90;;;;;;5068799;28;20044;-81
2022/05/16 12:24:41;;;;;;;11.38;4.80;;;23.30;99.90;;;;;;5049127;28;20425;-81
2022/05/16 12:27:26;;;;;;;9.32;4.55;;;23.30;99.90;;;;;;5065863;28;20052;-81
2022/05/16 12:29:56;;;;;;;10.25;4.50;;;23.30;99.90;;;;;;5065341;28;20049;-81
2022/05/16 12:32:31;;;;;;;7.95;4.70;;;23.30;99.90;;;;;;5065591;28;20071;-81
2022/05/16 12:35:10;;;;;;;8.57;5.57;;;23.40;99.90;;;;;;5065995;28;20049;-81
2022/05/16 12:37:38;;;;;;;7.28;4.45;;;23.40;99.90;;;;;;5064556;28;20052;-82
2022/05/16 12:40:13;;;;;;;11.02;4.30;;;23.40;99.90;;;;;;5069139;28;20064;-83
2022/05/16 12:42:51;;;;;;;7.75;4.50;;;23.40;99.90;;;;;;5067211;28;20661;-82
2022/05/16 12:45:16;;;;;;;6.00;4.32;;;23.40;99.90;;;;;;5048801;28;20040;-84
2022/05/16 12:48:04;;;;;;;10.65;5.03;;;23.40;99.90;;;;;;5051342;28;20040;-83
2022/05/16 12:50:56;;;;;;;8.82;4.78;;;23.40;99.40;;;;;;5048762;28;20049;-83
2022/05/16 12:53:38;;;;;;;9.60;4.47;;;23.40;99.90;;;;;;5045852;28;21265;-83
2022/05/16 12:56:03;;;;;;;;;;;23.50;99.90;;;;;;5050417;28;20052;-80
2022/05/16 12:58:49;;;;;;;7.97;4.38;;;23.50;95.60;;;;;;5066870;28;19928;-78
2022/05/16 13:01:44;;;;;;;13.73;5.45;;;23.70;99.90;;;;;;5066512;28;20419;-83
2022/05/16 13:04:41;;;;;;;7.35;4.50;;;23.80;97.10;;;;;;5051759;28;20055;-80
2022/05/16 13:07:22;;;;;;;8.93;4.65;;;24.00;94.20;;;;;;5050263;28;20060;-80
2022/05/16 13:10:06;;;;;;;8.88;4.95;;;24.20;96.90;;;;;;5065624;28;20083;-80
2022/05/16 13:13:01;;;;;;;8.75;5.03;;;24.40;91.60;;;;;;5052257;28;20095;-81
2022/05/16 13:15:46;;;;;;;7.50;4.00;;;24.50;91.00;;;;;;5065235;28;20091;-81
2022/05/16 13:18:22;;;;;;;9.35;3.95;;;24.60;87.70;;;;;;5065343;28;20072;-86
2022/05/16 13:20:51;;;;;;;10.20;4.13;;;24.60;92.10;;;;;;5061987;28;20099;-87
2022/05/16 13:23:19;;;;;;;7.85;4.18;;;24.70;91.90;;;;;;5065579;28;20041;-86
2022/05/16 13:31:33;;;;;;;8.40;3.38;;;24.80;91.60;;;;;;5065160;28;20048;-87
2022/05/16 13:34:00;;;;;;;6.68;3.10;;;24.70;90.60;;;;;;5063499;28;20051;-87
2022/05/16 13:36:25;;;;;;;5.22;2.97;;;24.60;90.70;;;;;;5070159;28;20080;-86
2022/05/16 13:38:57;;;;;;;5.13;2.80;;;24.50;91.20;;;;;;5066050;28;20044;-85
2022/05/16 13:41:25;;;;;;;7.00;3.00;;;24.40;91.40;;;;;;5063268;28;20059;-87